Terminal Aerodrome Forecast
Issued by NWS Detroit/Pontiac, MI

Home | Current Version | Previous Version | Text Only | Print | Product List | Glossary On
Versions: 1 2 3 4 5 6 7 8 9 10 11 12 13 14 15 16
356
FTUS43 KDTX 251121
TAFFNT
TAF
KFNT 251121Z 2512/2612 04006KT 5SM -RA BR BKN006 OVC012
     FM251300 05007KT 2SM -RA BR OVC005
     FM251800 06011KT 4SM -DZ BR OVC008
     FM260200 08007KT 2SM BR OVC006=

USA.gov is the U.S. government's official web portal to all federal, state and local government web resources and services.